Terminal Aerodrome Forecast
Issued by NWS

Current Version | Previous Version | Text Only | Print | Product List | Glossary Off
Versions: 1 2 3 4 5 6 7 8 9 10 11 12 13 14 15 16 17

000
FTUS41 KILN 300500
TAFLCK
TAF
KLCK 300536Z 3006/0106 VRB03KT P6SM SKC
     FM301100 26005KT P6SM SCT040
     FM301300 30010KT P6SM VCSH OVC035
     FM301800 32010KT P6SM VCSH OVC025
     FM302200 35008KT P6SM SCT025=

USA.gov is the U.S. government's official web portal to all federal, state and local government web resources and services.